createdAt,value
2019-05-18T00:01:25.194Z,98406.09
2019-05-18T00:03:54.777Z,98404.07
2019-05-18T00:06:24.397Z,98393.89
2019-05-18T00:08:54.023Z,98390.70
2019-05-18T00:11:23.636Z,98382.84
2019-05-18T00:13:53.323Z,98382.34
2019-05-18T00:16:23.024Z,98377.56
2019-05-18T00:18:52.681Z,98384.61
2019-05-18T00:21:22.308Z,98387.27
2019-05-18T00:23:51.926Z,98388.13
2019-05-18T00:26:21.485Z,98392.16
2019-05-18T00:28:51.142Z,98382.19
2019-05-18T00:31:20.987Z,98379.74
2019-05-18T00:33:50.745Z,98371.69
2019-05-18T00:36:20.319Z,98376.63
2019-05-18T00:38:49.941Z,98375.70
2019-05-18T00:41:19.563Z,98373.80
2019-05-18T00:43:49.183Z,98376.30
2019-05-18T00:46:18.852Z,98369.94
2019-05-18T00:48:48.504Z,98368.73
2019-05-18T00:51:18.101Z,98361.17
2019-05-18T00:57:52.528Z,98360.16
2019-05-18T01:00:22.287Z,98358.04
2019-05-18T01:02:51.942Z,98365.39
2019-05-18T01:05:21.541Z,98368.18
2019-05-18T01:07:51.189Z,98364.03
2019-05-18T01:10:21.371Z,98364.01
2019-05-18T01:12:50.975Z,98359.66
2019-05-18T01:15:20.962Z,98363.63
2019-05-18T01:17:57.343Z,98364.80
2019-05-18T01:20:22.133Z,98367.17
2019-05-18T01:22:51.729Z,98365.94
2019-05-18T01:25:21.308Z,98367.36
2019-05-18T01:27:50.932Z,98359.81
2019-05-18T01:30:21.108Z,98361.65
2019-05-18T01:32:50.766Z,98359.00
2019-05-18T01:35:20.534Z,98361.48
2019-05-18T01:37:50.100Z,98360.52
2019-05-18T01:40:21.344Z,98361.05
2019-05-18T01:42:50.975Z,98365.92
2019-05-18T01:45:20.589Z,98363.59
2019-05-18T01:47:50.240Z,98365.50
2019-05-18T01:50:19.958Z,98364.67
2019-05-18T01:52:49.647Z,98357.50
2019-05-18T01:55:19.227Z,98356.99
2019-05-18T01:57:48.844Z,98362.81
2019-05-18T02:00:19.009Z,98362.47
2019-05-18T02:02:48.725Z,98363.20
2019-05-18T02:05:18.352Z,98361.34
2019-05-18T02:07:48.026Z,98352.92
2019-05-18T02:10:17.771Z,98346.62
2019-05-18T02:12:47.352Z,98349.75
2019-05-18T02:15:17.269Z,98347.92
2019-05-18T02:17:46.857Z,98355.23
2019-05-18T02:20:16.773Z,98350.16
2019-05-18T02:22:46.416Z,98350.59
2019-05-18T02:25:16.583Z,98349.48
2019-05-18T02:27:46.178Z,98344.70
2019-05-18T02:30:17.495Z,98348.52
2019-05-18T02:32:47.450Z,98348.07
2019-05-18T02:35:17.183Z,98345.46
2019-05-18T02:37:46.809Z,98347.45
2019-05-18T02:40:16.603Z,98347.15
2019-05-18T02:42:46.192Z,98338.87
2019-05-18T02:45:16.016Z,98349.07
2019-05-18T02:47:45.579Z,98353.34
2019-05-18T02:50:15.940Z,98352.27
2019-05-18T02:52:45.513Z,98362.13
2019-05-18T02:55:15.231Z,98361.34
2019-05-18T02:57:44.816Z,98361.53
2019-05-18T03:00:14.602Z,98364.30
2019-05-18T03:02:44.267Z,98367.81
2019-05-18T03:05:14.058Z,98372.12
2019-05-18T03:07:43.796Z,98378.40
2019-05-18T03:10:13.617Z,98382.86
2019-05-18T03:12:43.279Z,98382.33
2019-05-18T03:15:13.215Z,98372.78
2019-05-18T03:17:42.788Z,98372.44
2019-05-18T03:20:12.863Z,98365.76
2019-05-18T03:22:42.477Z,98363.80
2019-05-18T03:25:12.072Z,98366.80
2019-05-18T03:27:41.713Z,98361.87
2019-05-18T03:30:11.739Z,98364.05
2019-05-18T03:32:41.390Z,98366.64
2019-05-18T03:35:11.670Z,98375.16
2019-05-18T03:37:41.308Z,98370.77
2019-05-18T03:40:11.588Z,98369.73
2019-05-18T03:42:41.193Z,98371.91
2019-05-18T03:45:11.148Z,98365.02
2019-05-18T03:47:40.750Z,98367.61
2019-05-18T03:50:11.435Z,98373.15
2019-05-18T03:52:41.069Z,98368.08
2019-05-18T03:55:10.840Z,98378.52
2019-05-18T03:57:40.567Z,98378.69
2019-05-18T04:00:10.517Z,98373.15
2019-05-18T04:02:40.213Z,98379.81
2019-05-18T04:05:10.067Z,98369.02
2019-05-18T04:07:39.694Z,98367.42
2019-05-18T04:10:09.958Z,98367.66
2019-05-18T04:12:39.571Z,98368.03
2019-05-18T04:15:10.065Z,98372.31
2019-05-18T04:17:39.709Z,98373.28
2019-05-18T04:20:10.216Z,98372.72
2019-05-18T04:22:39.847Z,98372.97
2019-05-18T04:25:09.575Z,98374.49
2019-05-18T04:27:39.197Z,98377.39
2019-05-18T04:30:09.657Z,98381.77
2019-05-18T04:32:39.481Z,98388.41
2019-05-18T04:35:09.316Z,98379.05
2019-05-18T04:37:38.984Z,98378.79
2019-05-18T04:40:09.092Z,98390.98
2019-05-18T04:42:38.706Z,98389.88
2019-05-18T04:45:08.676Z,98387.66
2019-05-18T04:47:38.345Z,98388.36
2019-05-18T04:50:08.553Z,98379.31
2019-05-18T04:52:38.194Z,98374.94
2019-05-18T04:55:07.976Z,98368.45
2019-05-18T04:57:37.603Z,98373.66
2019-05-18T05:00:07.663Z,98376.46
2019-05-18T05:02:37.285Z,98374.70
2019-05-18T05:05:07.440Z,98374.42
2019-05-18T05:07:37.039Z,98382.58
2019-05-18T05:10:07.974Z,98386.14
2019-05-18T05:12:37.626Z,98390.77
2019-05-18T05:15:07.309Z,98390.00
2019-05-18T05:17:37.100Z,98385.34
2019-05-18T05:20:18.750Z,98369.27
2019-05-18T05:22:38.135Z,98390.80
2019-05-18T05:25:07.876Z,98393.97
2019-05-18T05:27:37.481Z,98392.61
2019-05-18T05:30:07.697Z,98400.37
2019-05-18T05:32:37.295Z,98408.44
2019-05-18T05:35:07.452Z,98408.17
2019-05-18T05:37:37.142Z,98419.88
2019-05-18T05:40:07.302Z,98419.88
2019-05-18T05:42:36.900Z,98419.79
2019-05-18T05:45:06.901Z,98414.91
2019-05-18T05:47:36.539Z,98418.94
2019-05-18T05:50:07.097Z,98420.21
2019-05-18T05:52:36.734Z,98425.39
2019-05-18T05:55:07.107Z,98429.58
2019-05-18T05:57:36.795Z,98425.36
2019-05-18T06:00:07.974Z,98430.45
2019-05-18T06:02:37.625Z,98430.55
2019-05-18T06:05:07.729Z,98435.11
2019-05-18T06:07:37.388Z,98429.78
2019-05-18T06:10:07.478Z,98427.81
2019-05-18T06:12:37.074Z,98431.45
2019-05-18T06:15:07.194Z,98432.13
2019-05-18T06:17:36.786Z,98426.16
2019-05-18T06:20:06.898Z,98427.27
2019-05-18T06:22:36.541Z,98433.82
2019-05-18T06:25:07.029Z,98432.89
2019-05-18T06:27:36.699Z,98427.62
2019-05-18T06:30:07.067Z,98430.54
2019-05-18T06:32:36.688Z,98438.08
2019-05-18T06:35:06.639Z,98421.45
2019-05-18T06:37:36.211Z,98414.80
2019-05-18T06:40:06.359Z,98417.77
2019-05-18T06:42:35.953Z,98418.38
2019-05-18T06:45:05.988Z,98416.00
2019-05-18T06:47:35.577Z,98414.28
2019-05-18T06:50:05.359Z,98413.80
2019-05-18T06:52:35.012Z,98414.88
2019-05-18T06:55:04.899Z,98407.00
2019-05-18T06:57:35.143Z,98370.01
2019-05-18T07:00:05.890Z,98411.07
2019-05-18T07:02:35.438Z,98404.05
2019-05-18T07:05:05.463Z,98404.62
2019-05-18T07:07:35.040Z,98408.11
2019-05-18T07:10:04.929Z,98401.86
2019-05-18T07:12:34.645Z,98400.34
2019-05-18T07:15:04.494Z,98393.34
2019-05-18T07:17:34.754Z,98391.77
2019-05-18T07:20:04.545Z,98396.06
2019-05-18T07:22:34.154Z,98400.50
2019-05-18T07:25:03.883Z,98392.63
2019-05-18T07:27:33.524Z,98394.14
2019-05-18T07:30:03.163Z,98391.09
2019-05-18T07:32:32.754Z,98390.95
2019-05-18T07:35:02.378Z,98387.06
2019-05-18T07:37:32.008Z,98394.54
2019-05-18T07:40:01.665Z,98395.94
2019-05-18T07:42:31.390Z,98399.25
2019-05-18T07:45:01.022Z,98392.36
2019-05-18T07:47:30.615Z,98390.20
2019-05-18T07:50:00.242Z,98391.57
2019-05-18T07:52:29.853Z,98388.99
2019-05-18T07:54:59.503Z,98392.05
2019-05-18T07:57:29.162Z,98388.50
2019-05-18T07:59:58.732Z,98387.58
2019-05-18T08:02:28.316Z,98385.19
2019-05-18T08:04:57.912Z,98377.56
2019-05-18T08:07:27.533Z,98376.70
2019-05-18T08:09:57.185Z,98382.08
2019-05-18T08:12:26.812Z,98381.88
2019-05-18T08:14:56.506Z,98383.31
2019-05-18T08:17:26.073Z,98384.48
2019-05-18T08:19:55.690Z,98382.91
2019-05-18T08:22:25.276Z,98383.71
2019-05-18T08:24:54.898Z,98374.14
2019-05-18T08:27:24.529Z,98379.84
2019-05-18T08:29:54.132Z,98375.29
2019-05-18T08:32:23.785Z,98377.34
2019-05-18T08:34:53.409Z,98372.27
2019-05-18T08:37:22.998Z,98374.00
2019-05-18T08:39:52.606Z,98376.56
2019-05-18T08:42:22.198Z,98378.77
2019-05-18T08:44:51.863Z,98380.08
2019-05-18T08:47:21.539Z,98377.03
2019-05-18T08:49:51.175Z,98374.39
2019-05-18T08:52:20.784Z,98376.57
2019-05-18T08:54:50.391Z,98372.72
2019-05-18T08:57:20.030Z,98374.86
2019-05-18T08:59:49.597Z,98374.16
2019-05-18T09:02:19.182Z,98379.48
2019-05-18T09:04:48.806Z,98376.75
2019-05-18T09:07:18.393Z,98376.75
2019-05-18T09:09:48.003Z,98364.66
2019-05-18T09:12:17.627Z,98362.11
2019-05-18T09:14:47.341Z,98361.34
2019-05-18T09:17:16.933Z,98360.11
2019-05-18T09:19:46.517Z,98354.45
2019-05-18T09:22:23.283Z,98351.60
2019-05-18T09:24:47.492Z,98345.75
2019-05-18T09:27:17.040Z,98348.47
2019-05-18T09:29:46.671Z,98347.53
2019-05-18T09:32:16.278Z,98346.23
2019-05-18T09:34:45.875Z,98331.80
2019-05-18T09:37:15.517Z,98328.83
2019-05-18T09:39:45.082Z,98326.00
2019-05-18T09:42:14.690Z,98318.23
2019-05-18T09:44:44.275Z,98309.80
2019-05-18T09:47:13.852Z,98319.69
2019-05-18T09:49:43.500Z,98316.98
2019-05-18T09:52:13.100Z,98308.33
2019-05-18T09:54:42.658Z,98307.69
2019-05-18T09:57:12.242Z,98302.89
2019-05-18T09:59:41.822Z,98304.14
2019-05-18T10:02:11.455Z,98297.59
2019-05-18T10:04:41.029Z,98299.98
2019-05-18T10:07:10.602Z,98292.02
2019-05-18T10:09:40.213Z,98290.41
2019-05-18T10:12:09.818Z,98299.82
2019-05-18T10:14:39.434Z,98292.80
2019-05-18T10:17:09.017Z,98287.61
2019-05-18T10:19:38.613Z,98273.91
2019-05-18T10:22:08.198Z,98277.17
2019-05-18T10:24:37.775Z,98274.93
2019-05-18T10:27:07.474Z,98275.95
2019-05-18T10:29:37.120Z,98269.79
2019-05-18T10:32:06.801Z,98269.21
2019-05-18T10:34:36.368Z,98270.01
2019-05-18T10:37:05.944Z,98271.10
2019-05-18T10:39:38.613Z,98263.17
2019-05-18T10:42:06.955Z,98257.83
2019-05-18T10:44:36.523Z,98260.14
2019-05-18T10:47:06.148Z,98156.14
2019-05-18T10:49:35.747Z,98241.11
2019-05-18T10:52:05.394Z,98242.15
2019-05-18T10:54:35.018Z,98243.14
2019-05-18T10:57:04.694Z,98242.08
2019-05-18T10:59:34.295Z,98242.45
2019-05-18T11:02:04.586Z,98241.78
2019-05-18T11:04:34.284Z,98232.24
2019-05-18T11:07:03.888Z,98241.09
2019-05-18T11:09:33.461Z,98241.14
2019-05-18T11:12:03.175Z,98230.06
2019-05-18T11:14:32.758Z,98229.55
2019-05-18T11:17:02.368Z,98231.23
2019-05-18T11:19:31.878Z,98223.28
2019-05-18T11:22:01.475Z,98223.29
2019-05-18T11:24:31.060Z,98228.70
2019-05-18T11:27:00.729Z,98213.13
2019-05-18T11:29:30.452Z,98207.78
2019-05-18T11:32:00.122Z,98218.98
2019-05-18T11:34:29.701Z,98221.41
2019-05-18T11:37:02.978Z,98214.16
2019-05-18T11:39:30.616Z,98210.98
2019-05-18T11:42:00.311Z,98210.92
2019-05-18T11:44:29.908Z,98205.88
2019-05-18T11:46:59.520Z,98198.73
2019-05-18T11:49:29.319Z,98208.91
2019-05-18T11:51:58.861Z,98204.78
2019-05-18T11:54:28.511Z,98193.67
2019-05-18T11:56:58.107Z,98192.19
2019-05-18T11:59:27.696Z,98190.89
2019-05-18T12:06:00.198Z,98183.97
2019-05-18T12:08:29.862Z,98176.44
2019-05-18T12:10:59.441Z,98174.43
2019-05-18T12:13:29.148Z,98178.05
2019-05-18T12:15:58.738Z,98173.70
2019-05-18T12:18:28.392Z,98173.05
2019-05-18T12:20:57.978Z,98169.70
2019-05-18T12:23:27.562Z,98167.55
2019-05-18T12:25:57.254Z,98158.05
2019-05-18T12:28:26.848Z,98155.27
2019-05-18T12:30:56.499Z,98157.45
2019-05-18T12:33:26.077Z,98150.55
2019-05-18T12:35:55.650Z,98151.44
2019-05-18T12:38:25.247Z,98151.84
2019-05-18T12:40:55.409Z,98147.41
2019-05-18T12:43:25.035Z,98152.84
2019-05-18T12:45:54.739Z,98152.63
2019-05-18T12:48:24.325Z,98143.43
2019-05-18T12:50:53.950Z,98143.07
2019-05-18T12:56:06.986Z,98144.26
2019-05-18T12:58:37.723Z,98140.56
2019-05-18T13:01:07.554Z,98145.39
2019-05-18T13:03:37.159Z,98143.85
2019-05-18T13:06:06.843Z,98136.11
2019-05-18T13:08:36.492Z,98136.80
2019-05-18T13:11:06.382Z,98138.06
2019-05-18T13:13:35.969Z,98136.03
2019-05-18T13:16:05.683Z,98138.30
2019-05-18T13:18:35.293Z,98135.23
2019-05-18T13:21:04.979Z,98133.27
2019-05-18T13:23:34.641Z,98131.36
2019-05-18T13:26:04.265Z,98130.18
2019-05-18T13:28:33.859Z,98133.78
2019-05-18T13:31:03.466Z,98137.35
2019-05-18T13:33:33.091Z,98132.93
2019-05-18T13:36:02.669Z,98133.13
2019-05-18T13:38:32.250Z,98137.59
2019-05-18T13:41:01.858Z,98133.44
2019-05-18T13:43:31.488Z,98133.63
2019-05-18T13:46:01.082Z,98137.70
2019-05-18T13:48:30.635Z,98131.93
2019-05-18T13:51:00.255Z,98134.44
2019-05-18T13:53:29.865Z,98131.51
2019-05-18T13:55:59.429Z,98135.15
2019-05-18T13:58:29.103Z,98130.16
2019-05-18T14:00:58.697Z,98132.11
2019-05-18T14:03:28.277Z,98128.86
2019-05-18T14:05:57.902Z,98128.23
2019-05-18T14:08:27.487Z,98118.13
2019-05-18T14:10:57.128Z,98124.79
2019-05-18T14:13:26.702Z,98131.49
2019-05-18T14:15:56.303Z,98127.53
2019-05-18T14:18:25.876Z,98126.70
2019-05-18T14:20:55.443Z,98129.92
2019-05-18T14:23:25.086Z,98122.78
2019-05-18T14:25:54.706Z,98129.19
2019-05-18T14:28:24.301Z,98125.53
2019-05-18T14:30:53.930Z,98126.73
2019-05-18T14:33:23.472Z,98130.30
2019-05-18T14:35:53.019Z,98132.50
2019-05-18T14:38:22.603Z,98140.27
2019-05-18T14:40:52.177Z,98138.78
2019-05-18T14:43:21.764Z,98134.67
2019-05-18T14:45:51.353Z,98134.83
2019-05-18T14:48:20.943Z,98133.58
2019-05-18T14:50:50.566Z,98135.95
2019-05-18T14:53:20.165Z,98136.68
2019-05-18T14:55:49.789Z,98139.83
2019-05-18T14:58:19.514Z,98139.80
2019-05-18T15:00:49.094Z,98140.72
2019-05-18T15:03:18.717Z,98134.32
2019-05-18T15:05:48.378Z,98141.73
2019-05-18T15:08:18.063Z,98129.06
2019-05-18T15:10:47.659Z,98129.38
2019-05-18T15:13:17.303Z,98133.46
2019-05-18T15:15:47.019Z,98128.75
2019-05-18T15:18:16.687Z,98125.80
2019-05-18T15:20:46.281Z,98125.72
2019-05-18T15:23:15.888Z,98120.88
2019-05-18T15:25:50.528Z,98117.92
2019-05-18T15:28:16.852Z,98117.61
2019-05-18T15:30:46.488Z,98115.16
2019-05-18T15:33:16.069Z,98113.17
2019-05-18T15:35:45.647Z,98114.58
2019-05-18T15:38:15.222Z,98117.04
2019-05-18T15:40:44.810Z,98117.64
2019-05-18T15:43:14.422Z,98119.08
2019-05-18T15:45:43.994Z,98117.91
2019-05-18T15:48:13.590Z,98116.69
2019-05-18T15:50:43.195Z,98114.23
2019-05-18T15:53:12.877Z,98107.52
2019-05-18T15:55:42.503Z,98107.06
2019-05-18T15:58:12.072Z,98104.30
2019-05-18T16:00:41.684Z,98104.30
2019-05-18T16:03:11.298Z,98110.59
2019-05-18T16:05:40.872Z,98107.61
2019-05-18T16:08:10.594Z,98107.21
2019-05-18T16:10:40.174Z,98110.13
2019-05-18T16:13:09.860Z,98110.23
2019-05-18T16:15:39.539Z,98115.36
2019-05-18T16:18:09.281Z,98104.27
2019-05-18T16:20:38.948Z,98111.78
2019-05-18T16:23:08.673Z,98109.80
2019-05-18T16:25:38.374Z,98107.41
2019-05-18T16:28:08.064Z,98108.71
2019-05-18T16:30:37.660Z,98107.41
2019-05-18T16:33:07.419Z,98111.97
2019-05-18T16:35:37.077Z,98112.07
2019-05-18T16:38:06.650Z,98104.02
2019-05-18T16:40:36.261Z,98112.95
2019-05-18T16:43:05.881Z,98116.74
2019-05-18T16:45:35.513Z,98108.50
2019-05-18T16:48:05.081Z,98111.97
2019-05-18T16:50:34.656Z,98119.23
2019-05-18T16:57:14.155Z,98123.78
2019-05-18T16:59:44.070Z,98123.55
2019-05-18T17:02:14.103Z,98123.71
2019-05-18T17:04:43.963Z,98123.87
2019-05-18T17:07:14.043Z,98127.78
2019-05-18T17:09:43.899Z,98123.84
2019-05-18T17:12:13.751Z,98128.09
2019-05-18T17:14:43.529Z,98130.11
2019-05-18T17:17:13.466Z,98129.56
2019-05-18T17:19:43.341Z,98132.82
2019-05-18T17:22:13.250Z,98133.00
2019-05-18T17:24:43.050Z,98131.25
2019-05-18T17:27:13.077Z,98134.24
2019-05-18T17:29:43.033Z,98131.43
2019-05-18T17:32:13.628Z,98135.20
2019-05-18T17:34:43.191Z,98131.78
2019-05-18T17:37:12.780Z,98131.48
2019-05-18T17:39:42.386Z,98130.67
2019-05-18T17:42:12.004Z,98145.98
2019-05-18T17:44:41.622Z,98146.91
2019-05-18T17:47:11.210Z,98141.79
2019-05-18T17:49:40.933Z,98151.58
2019-05-18T17:52:10.717Z,98142.86
2019-05-18T17:54:40.406Z,98146.08
2019-05-18T17:57:10.032Z,98141.48
2019-05-18T17:59:39.629Z,98142.34
2019-05-18T18:02:09.243Z,98145.78
2019-05-18T18:04:38.863Z,98142.59
2019-05-18T18:07:08.631Z,98151.94
2019-05-18T18:09:38.210Z,98146.12
2019-05-18T18:12:07.798Z,98151.01
2019-05-18T18:14:37.386Z,98150.06
2019-05-18T18:17:06.990Z,98162.93
2019-05-18T18:19:36.621Z,98160.92
2019-05-18T18:22:06.296Z,98169.77
2019-05-18T18:24:35.959Z,98167.73
2019-05-18T18:27:05.635Z,98169.95
2019-05-18T18:29:35.313Z,98174.83
2019-05-18T18:32:04.994Z,98174.30
2019-05-18T18:34:34.635Z,98175.31
2019-05-18T18:37:04.238Z,98174.79
2019-05-18T18:39:33.822Z,98179.31
2019-05-18T18:42:03.441Z,98184.52
2019-05-18T18:44:33.118Z,98182.83
2019-05-18T18:47:02.782Z,98181.55
2019-05-18T18:49:32.448Z,98182.75
2019-05-18T18:52:02.019Z,98190.80
2019-05-18T18:54:31.577Z,98189.75
2019-05-18T18:57:01.326Z,98190.98
2019-05-18T18:59:30.973Z,98194.99
2019-05-18T19:02:00.544Z,98199.79
2019-05-18T19:04:30.160Z,98203.81
2019-05-18T19:06:59.744Z,98209.34
2019-05-18T19:09:29.385Z,98213.38
2019-05-18T19:11:58.988Z,98217.33
2019-05-18T19:14:28.619Z,98213.98
2019-05-18T19:16:59.244Z,98219.27
2019-05-18T19:19:28.864Z,98229.05
2019-05-18T19:21:58.475Z,98227.94
2019-05-18T19:24:28.056Z,98232.94
2019-05-18T19:26:57.682Z,98230.02
2019-05-18T19:29:27.297Z,98231.34
2019-05-18T19:31:56.925Z,98229.89
2019-05-18T19:34:26.572Z,98233.67
2019-05-18T19:36:56.169Z,98236.67
2019-05-18T19:39:25.806Z,98243.31
2019-05-18T19:41:55.418Z,98247.53
2019-05-18T19:44:25.130Z,98247.51
2019-05-18T19:46:54.767Z,98240.21
2019-05-18T19:49:24.351Z,98240.28
2019-05-18T19:51:53.946Z,98241.13
2019-05-18T19:54:23.555Z,98243.97
2019-05-18T19:56:53.226Z,98252.80
2019-05-18T19:59:22.879Z,98255.42
2019-05-18T20:01:52.448Z,98254.01
2019-05-18T20:04:22.121Z,98251.93
2019-05-18T20:06:51.760Z,98261.84
2019-05-18T20:09:21.406Z,98238.52
2019-05-18T20:11:51.055Z,98238.52
2019-05-18T20:14:20.658Z,98240.75
2019-05-18T20:16:50.315Z,98247.34
2019-05-18T20:19:19.906Z,98247.33
2019-05-18T20:21:49.543Z,98254.50
2019-05-18T20:24:19.172Z,98255.91
2019-05-18T20:26:51.088Z,98259.83
2019-05-18T20:29:20.688Z,98254.97
2019-05-18T20:31:50.347Z,98247.31
2019-05-18T20:34:19.945Z,98248.55
2019-05-18T20:36:49.635Z,98249.38
2019-05-18T20:39:19.217Z,98249.38
2019-05-18T20:41:48.799Z,98246.87
2019-05-18T20:44:18.402Z,98258.91
2019-05-18T20:46:48.021Z,98253.52
2019-05-18T20:49:17.709Z,98258.13
2019-05-18T20:51:47.314Z,98255.42
2019-05-18T20:54:16.969Z,98262.81
2019-05-18T20:56:46.598Z,98259.58
2019-05-18T20:59:16.187Z,98259.58
2019-05-18T21:01:45.841Z,98274.91
2019-05-18T21:04:15.526Z,98273.30
2019-05-18T21:06:45.788Z,98270.83
2019-05-18T21:09:15.505Z,98274.42
2019-05-18T21:11:45.226Z,98285.59
2019-05-18T21:14:14.912Z,98283.98
2019-05-18T21:16:44.524Z,98285.61
2019-05-18T21:19:14.155Z,98290.18
2019-05-18T21:21:43.806Z,98293.47
2019-05-18T21:24:13.445Z,98290.21
2019-05-18T21:26:43.059Z,98294.05
2019-05-18T21:29:12.679Z,98285.53
2019-05-18T21:31:42.361Z,98283.66
2019-05-18T21:34:11.987Z,98281.52
2019-05-18T21:36:41.617Z,98279.00
2019-05-18T21:39:11.262Z,98271.10
2019-05-18T21:41:40.896Z,98273.31
2019-05-18T21:44:10.606Z,98277.96
2019-05-18T21:46:40.198Z,98279.88
2019-05-18T21:49:10.006Z,98278.21
2019-05-18T21:51:39.664Z,98278.23
2019-05-18T21:54:09.276Z,98286.47
2019-05-18T21:56:38.881Z,98279.33
2019-05-18T21:59:11.884Z,98278.23
2019-05-18T22:01:39.887Z,98279.05
2019-05-18T22:04:09.548Z,98281.79
2019-05-18T22:06:39.163Z,98279.58
2019-05-18T22:09:08.944Z,98282.09
2019-05-18T22:11:38.590Z,98289.45
2019-05-18T22:14:08.214Z,98279.31
2019-05-18T22:16:37.977Z,98287.80
2019-05-18T22:19:07.572Z,98296.57
2019-05-18T22:21:37.181Z,98291.34
2019-05-18T22:24:06.863Z,98283.69
2019-05-18T22:26:36.476Z,98277.42
2019-05-18T22:29:06.229Z,98273.30
2019-05-18T22:31:35.899Z,98277.42
2019-05-18T22:34:05.526Z,98270.30
2019-05-18T22:36:35.116Z,98271.91
2019-05-18T22:39:06.053Z,98270.84
2019-05-18T22:41:35.822Z,98270.83
2019-05-18T22:44:05.688Z,98276.56
2019-05-18T22:46:35.308Z,98280.92
2019-05-18T22:49:04.900Z,98274.30
2019-05-18T22:51:34.511Z,98271.09
2019-05-18T22:54:04.122Z,98273.02
2019-05-18T22:56:33.799Z,98274.27
2019-05-18T22:59:03.460Z,98282.35
2019-05-18T23:01:33.091Z,98280.34
2019-05-18T23:04:02.702Z,98281.23
2019-05-18T23:06:32.329Z,98272.66
2019-05-18T23:09:02.008Z,98272.47
2019-05-18T23:11:31.615Z,98277.91
2019-05-18T23:14:01.226Z,98275.16
2019-05-18T23:16:30.822Z,98275.21
2019-05-18T23:19:00.432Z,98279.61
2019-05-18T23:21:30.092Z,98278.58
2019-05-18T23:23:59.705Z,98284.92
2019-05-18T23:26:29.359Z,98289.58
2019-05-18T23:28:59.029Z,98280.33
2019-05-18T23:31:28.646Z,98286.53
2019-05-18T23:33:58.298Z,98287.32
2019-05-18T23:36:27.886Z,98276.73
2019-05-18T23:38:57.581Z,98286.86
2019-05-18T23:41:27.190Z,98298.05
2019-05-18T23:43:56.822Z,98296.08
2019-05-18T23:46:26.528Z,98297.70
2019-05-18T23:49:08.720Z,98296.83
2019-05-18T23:51:27.518Z,98296.80
2019-05-18T23:53:57.101Z,98296.59
2019-05-18T23:56:26.707Z,98303.63
2019-05-18T23:58:56.361Z,98303.83
